createdAt,value
2017-12-31T21:01:09.796Z,9.50
2017-12-31T21:03:38.094Z,9.50
2017-12-31T21:06:05.598Z,9.50
2017-12-31T21:08:33.095Z,9.50
2017-12-31T21:11:01.376Z,9.50
2017-12-31T21:13:29.755Z,9.50
2017-12-31T21:15:58.043Z,9.60
2017-12-31T21:18:25.547Z,9.60
2017-12-31T21:20:53.069Z,9.60
2017-12-31T21:23:20.568Z,9.60
2017-12-31T21:25:48.091Z,9.70
2017-12-31T21:28:15.591Z,9.70
2017-12-31T21:30:43.205Z,9.70
2017-12-31T21:33:10.702Z,9.70
2017-12-31T21:35:38.198Z,9.70
2017-12-31T21:38:06.492Z,9.80
2017-12-31T21:40:35.558Z,9.70
2017-12-31T21:43:03.838Z,9.70
2017-12-31T21:45:32.122Z,9.70
2017-12-31T21:48:00.406Z,9.70
2017-12-31T21:50:28.672Z,9.60
2017-12-31T21:53:01.234Z,9.70
2017-12-31T21:55:31.651Z,9.70
2017-12-31T21:57:59.271Z,9.80
2017-12-31T22:00:26.799Z,9.70
2017-12-31T22:02:55.074Z,9.70
2017-12-31T22:05:23.362Z,9.80
2017-12-31T22:07:50.861Z,9.80
2017-12-31T22:10:28.261Z,9.80
2017-12-31T22:12:56.574Z,9.70
2017-12-31T22:15:24.860Z,9.70
2017-12-31T22:17:53.127Z,9.70
2017-12-31T22:20:21.410Z,9.70
2017-12-31T22:22:49.672Z,9.80
2017-12-31T22:25:17.212Z,9.70
2017-12-31T22:27:44.707Z,9.70
2017-12-31T22:30:12.971Z,9.80
2017-12-31T22:32:41.261Z,9.80
2017-12-31T22:35:09.540Z,9.70
2017-12-31T22:37:37.823Z,9.40
2017-12-31T22:40:06.086Z,9.10
2017-12-31T22:42:34.371Z,8.90
2017-12-31T22:45:02.635Z,8.80
2017-12-31T22:47:30.911Z,8.60
2017-12-31T22:49:59.186Z,8.40
2017-12-31T22:52:27.482Z,8.30
2017-12-31T22:54:54.995Z,8.30
2017-12-31T22:57:22.528Z,8.30
2017-12-31T22:59:50.022Z,8.20
2017-12-31T23:02:17.560Z,8.00
2017-12-31T23:04:45.851Z,7.30
2017-12-31T23:07:13.354Z,7.30
2017-12-31T23:09:40.884Z,7.00
2017-12-31T23:12:08.387Z,6.70
2017-12-31T23:14:35.951Z,6.60
2017-12-31T23:17:03.467Z,6.50
2017-12-31T23:19:31.741Z,6.50
2017-12-31T23:21:59.298Z,6.40
2017-12-31T23:24:26.792Z,6.40
2017-12-31T23:26:54.318Z,6.50
2017-12-31T23:29:21.818Z,6.50
2017-12-31T23:31:49.338Z,6.50
2017-12-31T23:34:17.611Z,6.50
2017-12-31T23:36:45.906Z,6.50
2017-12-31T23:39:14.191Z,6.50
2017-12-31T23:41:41.695Z,6.40
2017-12-31T23:44:09.228Z,6.60
2017-12-31T23:46:36.727Z,6.60
2017-12-31T23:49:04.247Z,6.70
2017-12-31T23:51:31.742Z,6.70
2017-12-31T23:53:59.262Z,6.80
2017-12-31T23:56:26.782Z,6.90
2017-12-31T23:58:55.042Z,6.90
